00:38
Airports
History
Links
Donate
Help keep this website running!
PayPal
Bitcoin
Information on this page is community maintained and may be outdated or inaccurate and is intended for reference only or PC simulator navigating.
Always use approved charts for navigating.
ESNQ
Kiruna
Kiruna (ESNQ)
Norrbotten County, Sweden (981)
(C)
Lat/Lng:67° 49' 19.15" N / 20° 20' 12.35" E
67.821985 / 20.336763
Elevation:1508'ft 460mMSL
ID / ICAO:ESNQ
Runways:1
Longest:(03-21) 2,494.5m 8,184ft Asphalt
Controlled:Yes
Distance To
Airport ID:
Airport Radio Frequencies
Tower: 130.15
Nearby VORs <50NM
Nearby NDBs
METARUpdated 07-25-17 00:20 GMT
Altimeter: 30.09
Visibility: 6.2 statute miles
Wind: 4 knots (210°)
Temp: 8°c 46°f
Humidity: 81.3%

METAR: ESNQ 250020Z AUTO 21004KT 9999 NCD 08/05 Q1019

(Powered by phpweather)
Runway 03 / 21
Dimensions:2494.5 x 45.1m 8184' x 148'ft
Surface:Asphalt
Edge Lights:High intensity
Runway 03 [A]Runway 21 [B]
Heading:033°TH 213°TH
Lat:
Lng:
67° 48' 45.54"N
20° 19' 13.1"E
67° 49' 52.75"N
20° 21' 11.59"E
ALS:CalvertCalvert
User Notes and Comments
Google Map
Nearby Airports
(U) KALIXFORS 4.4 NM
ESUK SSW 207°
(C) Gallivare 49.3 NM
ESNG SSE 165°
(U) Pajala 82.4 NM
ESUP ESE 118°
(U) Narvik Framnes 87.0 NM
ENNK (WX) WNW 299°
(C) Enontekio 87.9 NM
EFET ENE 64°
(C) JOKKMOKK 91.7 NM
ESNJ S 183°
(U) Aavahelukka 96.5 NM
EFAA E 99°
VFR Chart
Flight Planning at SkyVector.com